Time;durP1;ratioP1;P1;durP2;ratioP2;P2;SDS_P1;SDS_P2;PMS_P1;PMS_P2;Temp;Humidity;BMP_temperature;BMP_pressure;BME280_temperature;BME280_humidity;BME280_pressure;Samples;Min_cycle;Max_cycle;Signal;HPM_P1;HPM_P2
2023/12/27 00:00:54;;;;;;;0.00;0.00;;;;;;;;;;6188728;23;20490;-91
2023/12/27 00:03:20;;;;;;;0.00;0.00;;;;;;;;;;6167294;23;20019;-92
2023/12/27 00:05:45;;;;;;;0.00;0.00;;;;;;;;;;6245816;23;20414;-92
2023/12/27 00:08:11;;;;;;;0.00;0.00;;;;;;;;;;6219108;23;20420;-89
2023/12/27 00:10:36;;;;;;;0.00;0.00;;;;;;;;;;6169259;23;20011;-90
2023/12/27 00:13:02;;;;;;;0.00;0.00;;;;;;;;;;6193838;23;20004;-90
2023/12/27 00:15:28;;;;;;;0.00;0.00;;;;;;;;;;6193726;23;20014;-92
2023/12/27 00:17:53;;;;;;;0.00;0.00;;;;;;;;;;6194340;23;20449;-91
2023/12/27 00:20:19;;;;;;;0.00;0.00;;;;;;;;;;6245694;23;20008;-91
2023/12/27 00:22:44;;;;;;;0.00;0.00;;;;;;;;;;6193733;23;20004;-90
2023/12/27 00:25:10;;;;;;;0.00;0.00;;;;;;;;;;6193621;23;20077;-91
2023/12/27 00:27:35;;;;;;;0.00;0.00;;;;;;;;;;6168985;23;20004;-90
2023/12/27 00:30:01;;;;;;;0.00;0.00;;;;;;;;;;6218430;23;20000;-90
2023/12/27 00:32:27;;;;;;;0.00;0.00;;;;;;;;;;6245248;23;20000;-90
2023/12/27 00:34:52;;;;;;;0.00;0.00;;;;;;;;;;6169112;23;20007;-90
2023/12/27 00:37:18;;;;;;;0.00;0.00;;;;;;;;;;6219299;23;20014;-89
2023/12/27 00:39:44;;;;;;;0.00;0.00;;;;;;;;;;6243125;23;20102;-90
2023/12/27 00:42:10;;;;;;;0.00;0.00;;;;;;;;;;6246138;23;20099;-90
2023/12/27 00:44:35;;;;;;;0.00;0.00;;;;;;;;;;6218231;23;20004;-91
2023/12/27 00:47:01;;;;;;;0.00;0.00;;;;;;;;;;6245342;23;20000;-90
2023/12/27 00:49:26;;;;;;;0.00;0.00;;;;;;;;;;6193523;23;20038;-90
2023/12/27 00:51:52;;;;;;;0.00;0.00;;;;;;;;;;6219086;23;20075;-89
2023/12/27 00:54:18;;;;;;;0.00;0.00;;;;;;;;;;6218474;23;20474;-92
2023/12/27 00:56:44;;;;;;;0.00;0.00;;;;;;;;;;6194298;23;19996;-91
2023/12/27 00:59:10;;;;;;;0.00;0.00;;;;;;;;;;6193387;23;20343;-91
2023/12/27 01:01:35;;;;;;;0.00;0.00;;;;;;;;;;6218945;23;20023;-92
2023/12/27 01:04:01;;;;;;;0.00;0.00;;;;;;;;;;6227303;23;20018;-92
2023/12/27 01:06:26;;;;;;;0.00;0.00;;;;;;;;;;6206441;23;20069;-90
2023/12/27 01:08:52;;;;;;;0.00;0.00;;;;;;;;;;6204520;23;20007;-90
2023/12/27 01:11:17;;;;;;;0.00;0.00;;;;;;;;;;6224483;23;20000;-88
2023/12/27 01:13:43;;;;;;;0.00;0.00;;;;;;;;;;6240750;23;20007;-90
2023/12/27 01:16:08;;;;;;;0.00;0.00;;;;;;;;;;6239233;23;20038;-90
2023/12/27 01:18:34;;;;;;;0.00;0.00;;;;;;;;;;6181315;23;20125;-91
2023/12/27 01:20:59;;;;;;;0.00;0.00;;;;;;;;;;6233162;23;20344;-89
2023/12/27 01:23:25;;;;;;;0.00;0.00;;;;;;;;;;6242541;23;20004;-90
2023/12/27 01:25:50;;;;;;;0.00;0.00;;;;;;;;;;6266783;23;20489;-91
2023/12/27 01:28:16;;;;;;;0.00;0.00;;;;;;;;;;6220628;23;20001;-89
2023/12/27 01:30:42;;;;;;;0.00;0.00;;;;;;;;;;6240581;23;20004;-89
2023/12/27 01:33:07;;;;;;;0.00;0.00;;;;;;;;;;6243951;23;20068;-90
2023/12/27 01:35:33;;;;;;;0.00;0.00;;;;;;;;;;6206895;23;20015;-90
2023/12/27 01:38:00;;;;;;;0.00;0.00;;;;;;;;;;6196515;23;20007;-89
2023/12/27 01:40:26;;;;;;;0.00;0.00;;;;;;;;;;6200433;23;20084;-89
2023/12/27 01:42:51;;;;;;;0.00;0.00;;;;;;;;;;6221497;23;20000;-91
2023/12/27 01:45:17;;;;;;;0.00;0.00;;;;;;;;;;6228237;23;20015;-89
2023/12/27 01:47:42;;;;;;;0.00;0.00;;;;;;;;;;6228085;23;20067;-88
2023/12/27 01:50:09;;;;;;;0.00;0.00;;;;;;;;;;6220271;23;20011;-89
2023/12/27 01:52:43;;;;;;;0.00;0.00;;;;;;;;;;6198421;23;20083;-90
2023/12/27 01:55:09;;;;;;;0.00;0.00;;;;;;;;;;6199444;23;20012;-90
2023/12/27 01:57:39;;;;;;;0.00;0.00;;;;;;;;;;6202998;23;20142;-89
2023/12/27 02:00:11;;;;;;;0.00;0.00;;;;;;;;;;6198445;23;20008;-89
2023/12/27 02:02:37;;;;;;;0.00;0.00;;;;;;;;;;6194490;23;20095;-89
2023/12/27 02:05:03;;;;;;;0.00;0.00;;;;;;;;;;6171691;23;20012;-92
2023/12/27 02:07:28;;;;;;;0.00;0.00;;;;;;;;;;6189351;23;20048;-90
2023/12/27 02:09:54;;;;;;;0.00;0.00;;;;;;;;;;6182128;23;20013;-91
2023/12/27 02:12:30;;;;;;;0.00;0.00;;;;;;;;;;6192082;23;20100;-91
2023/12/27 02:14:56;;;;;;;0.00;0.00;;;;;;;;;;6194903;23;20023;-90
2023/12/27 02:17:22;;;;;;;0.00;0.00;;;;;;;;;;6217893;23;20008;-88
2023/12/27 02:19:47;;;;;;;0.00;0.00;;;;;;;;;;6188906;23;20020;-90
2023/12/27 02:22:17;;;;;;;0.00;0.00;;;;;;;;;;6212203;23;20003;-90
2023/12/27 02:24:42;;;;;;;0.00;0.00;;;;;;;;;;6194586;23;20000;-91
2023/12/27 02:27:08;;;;;;;0.00;0.00;;;;;;;;;;6195288;23;20494;-90
2023/12/27 02:29:36;;;;;;;0.00;0.00;;;;;;;;;;6194898;23;20009;-91
2023/12/27 02:32:02;;;;;;;0.00;0.00;;;;;;;;;;6170907;23;20004;-91
2023/12/27 02:34:28;;;;;;;0.00;0.00;;;;;;;;;;6167595;23;20340;-89
2023/12/27 02:36:53;;;;;;;0.00;0.00;;;;;;;;;;6244426;23;20087;-87
2023/12/27 02:39:19;;;;;;;0.00;0.00;;;;;;;;;;6217724;23;20386;-92
2023/12/27 02:41:44;;;;;;;0.00;0.00;;;;;;;;;;6243178;23;20034;-91
2023/12/27 02:44:10;;;;;;;0.00;0.00;;;;;;;;;;6217669;23;20008;-92
2023/12/27 02:46:38;;;;;;;0.00;0.00;;;;;;;;;;6192596;23;20004;-92
2023/12/27 02:49:04;;;;;;;0.00;0.00;;;;;;;;;;6217601;23;20028;-91
2023/12/27 02:51:29;;;;;;;0.00;0.00;;;;;;;;;;6217292;23;20447;-90
2023/12/27 02:53:55;;;;;;;0.00;0.00;;;;;;;;;;6243727;23;20008;-90
2023/12/27 02:56:21;;;;;;;0.00;0.00;;;;;;;;;;6192907;23;20008;-89
2023/12/27 02:58:46;;;;;;;0.00;0.00;;;;;;;;;;6192016;23;20374;-90
2023/12/27 03:01:12;;;;;;;0.00;0.00;;;;;;;;;;6244303;23;20003;-90
2023/12/27 03:03:37;;;;;;;0.00;0.00;;;;;;;;;;6217415;23;20034;-90
2023/12/27 03:06:04;;;;;;;0.00;0.00;;;;;;;;;;6192572;23;20047;-90
2023/12/27 03:08:30;;;;;;;0.00;0.00;;;;;;;;;;6192602;23;20011;-89
2023/12/27 03:10:56;;;;;;;0.00;0.00;;;;;;;;;;6192731;23;20000;-90
2023/12/27 03:13:21;;;;;;;0.00;0.00;;;;;;;;;;6243881;23;20075;-89
2023/12/27 03:15:47;;;;;;;0.00;0.00;;;;;;;;;;6243855;23;20460;-90
2023/12/27 03:18:12;;;;;;;0.00;0.00;;;;;;;;;;6168241;23;20084;-90
2023/12/27 03:20:38;;;;;;;0.00;0.00;;;;;;;;;;6226440;23;19992;-90
2023/12/27 03:23:03;;;;;;;0.00;0.00;;;;;;;;;;6258806;23;20001;-92
2023/12/27 03:25:32;;;;;;;0.00;0.00;;;;;;;;;;6233261;23;20007;-91
2023/12/27 03:27:57;;;;;;;0.00;0.00;;;;;;;;;;6234220;23;20026;-88
2023/12/27 03:30:23;;;;;;;0.00;0.00;;;;;;;;;;6261384;23;20347;-88
2023/12/27 03:32:48;;;;;;;0.00;0.00;;;;;;;;;;6223938;23;20352;-91
2023/12/27 03:35:14;;;;;;;0.00;0.00;;;;;;;;;;6223416;23;20011;-90
2023/12/27 03:37:39;;;;;;;0.00;0.00;;;;;;;;;;6195466;23;20004;-91
2023/12/27 03:40:06;;;;;;;0.00;0.00;;;;;;;;;;6193523;23;20004;-91
2023/12/27 03:42:31;;;;;;;0.00;0.00;;;;;;;;;;6245993;23;20027;-90
2023/12/27 03:44:57;;;;;;;0.00;0.00;;;;;;;;;;6218789;23;20428;-90
2023/12/27 03:47:22;;;;;;;0.00;0.00;;;;;;;;;;6219131;23;20000;-91
2023/12/27 03:49:48;;;;;;;0.00;0.00;;;;;;;;;;6193914;23;20011;-89
2023/12/27 03:52:13;;;;;;;0.00;0.00;;;;;;;;;;6215333;23;20394;-91
2023/12/27 03:54:40;;;;;;;0.00;0.00;;;;;;;;;;6193818;23;20342;-91
2023/12/27 03:57:05;;;;;;;0.00;0.00;;;;;;;;;;6219710;23;20083;-89
2023/12/27 03:59:31;;;;;;;0.00;0.00;;;;;;;;;;6194351;23;20003;-91
2023/12/27 04:01:56;;;;;;;0.00;0.00;;;;;;;;;;6195964;23;20444;-89
2023/12/27 04:04:22;;;;;;;0.00;0.00;;;;;;;;;;6221694;23;20036;-91
2023/12/27 04:06:47;;;;;;;0.00;0.00;;;;;;;;;;6248168;23;20000;-91
2023/12/27 04:09:13;;;;;;;0.00;0.00;;;;;;;;;;6222760;23;20007;-91
2023/12/27 04:11:45;;;;;;;0.00;0.00;;;;;;;;;;6222207;23;19996;-91
2023/12/27 04:14:14;;;;;;;0.00;0.00;;;;;;;;;;6222542;23;20000;-90
2023/12/27 04:16:39;;;;;;;0.00;0.00;;;;;;;;;;6170505;23;20008;-91
2023/12/27 04:19:05;;;;;;;0.00;0.00;;;;;;;;;;6245842;23;20019;-91
2023/12/27 04:21:31;;;;;;;0.00;0.00;;;;;;;;;;6219247;23;20000;-90
2023/12/27 04:23:56;;;;;;;0.00;0.00;;;;;;;;;;6197450;23;20343;-89
2023/12/27 04:26:22;;;;;;;0.00;0.00;;;;;;;;;;6262895;23;20040;-89
2023/12/27 04:28:48;;;;;;;0.00;0.00;;;;;;;;;;6264271;23;20068;-90
2023/12/27 04:31:13;;;;;;;0.00;0.00;;;;;;;;;;6236822;23;20044;-90
2023/12/27 04:33:39;;;;;;;0.00;0.00;;;;;;;;;;6212780;23;20034;-89
2023/12/27 04:36:05;;;;;;;0.00;0.00;;;;;;;;;;6254469;23;20343;-90
2023/12/27 04:38:30;;;;;;;0.00;0.00;;;;;;;;;;6192627;23;20022;-91
2023/12/27 04:40:56;;;;;;;0.00;0.00;;;;;;;;;;6188488;23;20067;-89
2023/12/27 04:43:21;;;;;;;0.10;0.00;;;;;;;;;;6216415;23;20011;-90
2023/12/27 04:45:48;;;;;;;0.00;0.00;;;;;;;;;;6219237;23;20102;-90
2023/12/27 04:48:14;;;;;;;0.00;0.00;;;;;;;;;;6193556;23;20000;-92
2023/12/27 04:50:40;;;;;;;0.00;0.00;;;;;;;;;;6218102;23;20420;-91
2023/12/27 04:53:05;;;;;;;0.00;0.00;;;;;;;;;;6244822;23;20030;-90
2023/12/27 04:55:31;;;;;;;0.00;0.00;;;;;;;;;;6218476;23;20070;-91
2023/12/27 04:57:56;;;;;;;0.00;0.00;;;;;;;;;;6218343;23;20083;-88
2023/12/27 05:00:25;;;;;;;0.00;0.00;;;;;;;;;;6244782;23;20364;-91
2023/12/27 05:02:50;;;;;;;0.00;0.00;;;;;;;;;;6169688;23;20031;-90
2023/12/27 05:05:16;;;;;;;0.00;0.00;;;;;;;;;;6193203;23;20363;-90
2023/12/27 05:07:41;;;;;;;0.00;0.00;;;;;;;;;;6218308;23;20095;-90
2023/12/27 05:10:08;;;;;;;0.00;0.00;;;;;;;;;;6218199;23;20004;-90
2023/12/27 05:12:34;;;;;;;0.00;0.00;;;;;;;;;;6193395;23;20008;-92
2023/12/27 05:14:59;;;;;;;0.00;0.00;;;;;;;;;;6193097;23;20004;-90
2023/12/27 05:17:25;;;;;;;0.00;0.00;;;;;;;;;;6193263;23;20115;-91
2023/12/27 05:19:50;;;;;;;0.00;0.00;;;;;;;;;;6245172;23;20334;-90
2023/12/27 05:22:17;;;;;;;0.00;0.00;;;;;;;;;;6244899;23;20000;-88
2023/12/27 05:24:42;;;;;;;0.00;0.00;;;;;;;;;;6194445;23;20000;-91
2023/12/27 05:27:08;;;;;;;0.00;0.00;;;;;;;;;;6218664;23;20000;-89
2023/12/27 05:29:38;;;;;;;0.00;0.00;;;;;;;;;;6218608;23;20006;-90
2023/12/27 05:32:04;;;;;;;0.00;0.00;;;;;;;;;;6195715;23;20027;-89
2023/12/27 05:34:29;;;;;;;0.00;0.00;;;;;;;;;;6213086;23;20004;-92
2023/12/27 05:36:55;;;;;;;0.00;0.00;;;;;;;;;;6181077;23;20070;-90
2023/12/27 05:39:20;;;;;;;0.00;0.00;;;;;;;;;;6254074;23;20007;-89
2023/12/27 05:41:48;;;;;;;0.00;0.00;;;;;;;;;;6209589;23;20008;-88
2023/12/27 05:44:14;;;;;;;0.00;0.00;;;;;;;;;;6210256;23;20054;-89
2023/12/27 05:46:40;;;;;;;0.00;0.00;;;;;;;;;;6236486;23;19992;-88
2023/12/27 05:49:05;;;;;;;0.00;0.00;;;;;;;;;;6262214;23;20010;-89
2023/12/27 05:51:31;;;;;;;0.00;0.00;;;;;;;;;;6231583;23;20001;-89
2023/12/27 05:53:57;;;;;;;0.00;0.00;;;;;;;;;;6208958;23;19997;-85
2023/12/27 05:56:22;;;;;;;0.00;0.00;;;;;;;;;;6196471;22;20010;-88
2023/12/27 05:58:48;;;;;;;0.00;0.00;;;;;;;;;;6217185;23;19997;-88
2023/12/27 06:01:13;;;;;;;0.00;0.00;;;;;;;;;;6215893;23;19997;-87
2023/12/27 06:03:39;;;;;;;0.00;0.00;;;;;;;;;;6222498;23;20413;-89
2023/12/27 06:06:05;;;;;;;0.00;0.00;;;;;;;;;;6273592;22;19992;-89
2023/12/27 06:08:30;;;;;;;0.00;0.00;;;;;;;;;;6208483;23;20383;-91
2023/12/27 06:10:56;;;;;;;0.00;0.00;;;;;;;;;;6193359;23;20065;-90
2023/12/27 06:13:22;;;;;;;0.00;0.00;;;;;;;;;;6218888;23;20083;-91
2023/12/27 06:15:47;;;;;;;0.00;0.00;;;;;;;;;;6194036;23;20008;-91
2023/12/27 06:18:13;;;;;;;0.00;0.00;;;;;;;;;;6244617;23;20024;-91
2023/12/27 06:20:38;;;;;;;0.00;0.00;;;;;;;;;;6221692;23;20008;-92
2023/12/27 06:23:03;;;;;;;0.00;0.00;;;;;;;;;;6193836;23;20004;-91
2023/12/27 06:25:29;;;;;;;0.00;0.00;;;;;;;;;;6244957;23;20004;-92
2023/12/27 06:27:54;;;;;;;0.00;0.00;;;;;;;;;;6193750;23;20359;-91
2023/12/27 06:30:20;;;;;;;0.00;0.00;;;;;;;;;;6219319;23;20027;-91
2023/12/27 06:32:45;;;;;;;0.00;0.00;;;;;;;;;;6229109;23;19999;-89
2023/12/27 06:35:11;;;;;;;0.00;0.00;;;;;;;;;;6213843;23;20008;-89
2023/12/27 06:37:36;;;;;;;0.00;0.00;;;;;;;;;;6225772;23;20000;-90
2023/12/27 06:40:02;;;;;;;0.00;0.00;;;;;;;;;;6217027;23;20032;-90
2023/12/27 06:42:28;;;;;;;0.00;0.00;;;;;;;;;;6217204;23;20004;-90
2023/12/27 06:44:54;;;;;;;0.00;0.00;;;;;;;;;;6192466;23;20439;-89
2023/12/27 06:47:19;;;;;;;0.00;0.00;;;;;;;;;;6167472;23;20004;-90
2023/12/27 06:49:47;;;;;;;0.00;0.00;;;;;;;;;;6212539;23;20000;-91
2023/12/27 06:52:12;;;;;;;0.00;0.00;;;;;;;;;;6186131;23;20088;-91
2023/12/27 06:54:38;;;;;;;0.00;0.00;;;;;;;;;;6192629;23;20039;-90
2023/12/27 06:57:03;;;;;;;0.00;0.00;;;;;;;;;;6193003;23;20382;-91
2023/12/27 06:59:29;;;;;;;0.00;0.00;;;;;;;;;;6244173;23;20004;-91
2023/12/27 07:01:54;;;;;;;0.00;0.00;;;;;;;;;;6217805;23;20006;-91
2023/12/27 07:04:20;;;;;;;0.00;0.00;;;;;;;;;;6218174;23;20069;-92
2023/12/27 07:06:45;;;;;;;0.00;0.00;;;;;;;;;;6202600;23;20046;-92
2023/12/27 07:09:11;;;;;;;0.00;0.00;;;;;;;;;;6240404;23;19992;-87
2023/12/27 07:11:36;;;;;;;0.00;0.00;;;;;;;;;;6238650;23;20004;-89
2023/12/27 07:14:02;;;;;;;0.00;0.00;;;;;;;;;;6236218;23;20008;-91
2023/12/27 07:16:28;;;;;;;0.00;0.00;;;;;;;;;;6195648;23;20011;-92
2023/12/27 07:18:53;;;;;;;0.00;0.00;;;;;;;;;;6244480;23;20004;-93
2023/12/27 07:21:19;;;;;;;0.00;0.00;;;;;;;;;;6217500;23;20000;-91
2023/12/27 07:23:44;;;;;;;0.00;0.00;;;;;;;;;;6218150;23;20008;-93
2023/12/27 07:26:13;;;;;;;0.00;0.00;;;;;;;;;;6193046;23;20000;-91
2023/12/27 07:28:39;;;;;;;0.00;0.00;;;;;;;;;;6192339;23;20009;-92
2023/12/27 07:31:11;;;;;;;0.00;0.00;;;;;;;;;;6217788;23;20016;-92
2023/12/27 07:33:37;;;;;;;0.00;0.00;;;;;;;;;;6194577;23;20329;-93
2023/12/27 07:36:03;;;;;;;0.00;0.00;;;;;;;;;;6193031;23;20035;-92
2023/12/27 07:38:29;;;;;;;0.00;0.00;;;;;;;;;;6214666;23;20351;-91
2023/12/27 07:40:57;;;;;;;0.00;0.00;;;;;;;;;;6207247;23;20009;-91
2023/12/27 07:43:24;;;;;;;0.00;0.00;;;;;;;;;;6192531;23;20012;-93
2023/12/27 07:45:50;;;;;;;0.00;0.00;;;;;;;;;;6168689;23;20000;-90
2023/12/27 07:48:15;;;;;;;0.00;0.00;;;;;;;;;;6189613;23;20009;-90
2023/12/27 07:50:45;;;;;;;0.00;0.00;;;;;;;;;;6191618;23;20008;-90
2023/12/27 07:53:13;;;;;;;0.00;0.00;;;;;;;;;;6217155;23;20007;-91
2023/12/27 07:55:39;;;;;;;0.00;0.00;;;;;;;;;;6192788;23;20004;-89
2023/12/27 07:58:04;;;;;;;0.00;0.00;;;;;;;;;;6217336;23;20004;-92
2023/12/27 08:00:30;;;;;;;0.00;0.00;;;;;;;;;;6216521;23;20008;-92
2023/12/27 08:02:58;;;;;;;0.00;0.00;;;;;;;;;;6188469;23;20017;-90
2023/12/27 08:05:23;;;;;;;0.00;0.00;;;;;;;;;;6191756;23;20452;-89
2023/12/27 08:07:49;;;;;;;0.00;0.00;;;;;;;;;;6192679;23;20007;-91
2023/12/27 08:10:14;;;;;;;0.00;0.00;;;;;;;;;;6217688;23;20008;-90
2023/12/27 08:12:40;;;;;;;0.00;0.00;;;;;;;;;;6167219;23;20161;-89
2023/12/27 08:15:06;;;;;;;0.00;0.00;;;;;;;;;;6193760;23;20427;-91
2023/12/27 08:17:35;;;;;;;0.00;0.00;;;;;;;;;;6164044;23;20008;-91
2023/12/27 08:20:04;;;;;;;0.00;0.00;;;;;;;;;;6182756;23;20004;-89
2023/12/27 08:22:30;;;;;;;0.00;0.00;;;;;;;;;;6206974;23;20313;-91
2023/12/27 08:24:56;;;;;;;0.00;0.00;;;;;;;;;;6219297;23;20014;-90
2023/12/27 08:27:22;;;;;;;0.00;0.00;;;;;;;;;;6194101;23;20052;-90
2023/12/27 08:29:47;;;;;;;0.00;0.00;;;;;;;;;;6219346;23;20343;-89
2023/12/27 08:32:13;;;;;;;0.00;0.00;;;;;;;;;;6190432;23;20004;-90
2023/12/27 08:34:38;;;;;;;0.00;0.00;;;;;;;;;;6193061;23;20356;-91
2023/12/27 08:37:04;;;;;;;0.00;0.00;;;;;;;;;;6219463;23;20008;-92
2023/12/27 08:39:29;;;;;;;0.00;0.00;;;;;;;;;;6219016;23;20071;-91
2023/12/27 08:41:55;;;;;;;0.20;0.00;;;;;;;;;;6218994;23;20005;-92
2023/12/27 08:44:20;;;;;;;0.00;0.00;;;;;;;;;;6219062;23;20000;-90
2023/12/27 08:47:08;;;;;;;0.00;0.00;;;;;;;;;;6194599;23;20014;-93
2023/12/27 08:49:33;;;;;;;0.00;0.00;;;;;;;;;;6194323;23;20004;-89
2023/12/27 08:51:59;;;;;;;0.00;0.00;;;;;;;;;;6220150;23;20007;-90
2023/12/27 08:54:25;;;;;;;0.00;0.00;;;;;;;;;;6195140;23;20011;-90
2023/12/27 08:56:51;;;;;;;0.00;0.00;;;;;;;;;;6193700;23;20012;-90
2023/12/27 08:59:16;;;;;;;0.00;0.00;;;;;;;;;;6169304;23;20000;-92
2023/12/27 09:01:42;;;;;;;0.00;0.00;;;;;;;;;;6194040;23;20054;-91
2023/12/27 09:04:07;;;;;;;0.00;0.00;;;;;;;;;;6244951;23;20012;-90
2023/12/27 09:06:33;;;;;;;0.00;0.00;;;;;;;;;;6218876;23;20000;-90
2023/12/27 09:08:58;;;;;;;0.00;0.00;;;;;;;;;;6219166;23;20008;-92
2023/12/27 09:11:24;;;;;;;0.00;0.00;;;;;;;;;;6218404;23;20380;-88
2023/12/27 09:13:51;;;;;;;0.00;0.00;;;;;;;;;;6246020;23;20081;-90
2023/12/27 09:16:18;;;;;;;0.00;0.00;;;;;;;;;;6219540;23;20000;-92
2023/12/27 09:18:46;;;;;;;0.00;0.00;;;;;;;;;;6246534;23;20022;-89
2023/12/27 09:21:13;;;;;;;0.00;0.00;;;;;;;;;;6197328;23;20030;-90
2023/12/27 09:23:40;;;;;;;0.00;0.00;;;;;;;;;;6234928;23;20000;-88
2023/12/27 09:26:12;;;;;;;0.00;0.00;;;;;;;;;;6233509;23;20004;-92
2023/12/27 09:28:37;;;;;;;0.00;0.00;;;;;;;;;;6233800;23;20004;-88
2023/12/27 09:31:05;;;;;;;0.00;0.00;;;;;;;;;;6210522;23;20008;-90
2023/12/27 09:33:32;;;;;;;0.00;0.00;;;;;;;;;;6202992;23;20065;-91
2023/12/27 09:35:58;;;;;;;0.00;0.00;;;;;;;;;;6196789;23;20015;-91
2023/12/27 09:38:24;;;;;;;0.00;0.00;;;;;;;;;;6223634;23;20000;-89
2023/12/27 09:40:49;;;;;;;0.00;0.00;;;;;;;;;;6194323;23;20008;-88
2023/12/27 09:43:15;;;;;;;0.00;0.00;;;;;;;;;;6191315;23;20001;-90
2023/12/27 09:45:41;;;;;;;0.00;0.00;;;;;;;;;;6169366;23;20059;-88
2023/12/27 09:48:06;;;;;;;0.00;0.00;;;;;;;;;;6193838;23;20038;-90
2023/12/27 09:50:33;;;;;;;0.00;0.00;;;;;;;;;;6188445;23;20087;-89
2023/12/27 09:52:58;;;;;;;0.00;0.00;;;;;;;;;;6182920;23;20005;-89
2023/12/27 09:55:24;;;;;;;0.00;0.00;;;;;;;;;;6192790;23;20091;-88
2023/12/27 09:57:49;;;;;;;0.00;0.00;;;;;;;;;;6193855;23;20346;-89
2023/12/27 10:00:16;;;;;;;0.00;0.00;;;;;;;;;;6218476;23;20004;-90
2023/12/27 10:02:42;;;;;;;0.00;0.00;;;;;;;;;;6169216;23;20027;-89
2023/12/27 10:05:21;;;;;;;0.00;0.00;;;;;;;;;;6190905;23;20015;-89
2023/12/27 10:07:47;;;;;;;0.00;0.00;;;;;;;;;;6242172;23;20039;-88
2023/12/27 10:10:19;;;;;;;0.00;0.00;;;;;;;;;;6192959;23;20004;-89
2023/12/27 10:12:47;;;;;;;0.00;0.00;;;;;;;;;;6219710;23;19996;-91
2023/12/27 10:15:14;;;;;;;0.00;0.00;;;;;;;;;;6218504;23;20008;-90
2023/12/27 10:17:39;;;;;;;0.00;0.00;;;;;;;;;;6218291;23;20355;-89
2023/12/27 10:20:07;;;;;;;0.00;0.00;;;;;;;;;;6244834;23;20028;-88
2023/12/27 10:22:32;;;;;;;0.00;0.00;;;;;;;;;;6219244;23;20415;-90
2023/12/27 10:24:58;;;;;;;0.00;0.00;;;;;;;;;;6193454;23;20032;-90
2023/12/27 10:27:23;;;;;;;0.00;0.00;;;;;;;;;;6168404;23;20062;-89
2023/12/27 10:29:49;;;;;;;0.00;0.00;;;;;;;;;;6192906;23;20004;-88
2023/12/27 10:32:18;;;;;;;0.00;0.00;;;;;;;;;;6244697;23;20012;-90
2023/12/27 10:34:44;;;;;;;0.00;0.00;;;;;;;;;;6193616;23;20008;-90
2023/12/27 10:37:12;;;;;;;0.00;0.00;;;;;;;;;;6192567;23;20000;-88
2023/12/27 10:39:47;;;;;;;0.00;0.00;;;;;;;;;;6217888;23;20415;-91
2023/12/27 10:42:16;;;;;;;0.00;0.00;;;;;;;;;;6218403;23;20011;-89
2023/12/27 10:44:51;;;;;;;0.00;0.00;;;;;;;;;;6193215;23;20420;-91
2023/12/27 10:47:17;;;;;;;0.00;0.00;;;;;;;;;;6218631;23;20497;-89
2023/12/27 10:49:49;;;;;;;0.00;0.00;;;;;;;;;;6218446;23;20031;-89
2023/12/27 10:52:15;;;;;;;0.00;0.00;;;;;;;;;;6192706;23;20004;-91
2023/12/27 10:54:46;;;;;;;0.00;0.00;;;;;;;;;;6217799;23;20090;-91
2023/12/27 10:57:18;;;;;;;0.00;0.00;;;;;;;;;;6193439;23;20008;-90
2023/12/27 10:59:47;;;;;;;0.00;0.00;;;;;;;;;;6169357;23;20099;-90
2023/12/27 11:02:12;;;;;;;0.00;0.00;;;;;;;;;;6244847;23;20071;-88
2023/12/27 11:04:41;;;;;;;0.00;0.00;;;;;;;;;;6193075;23;20447;-88
2023/12/27 11:07:07;;;;;;;0.00;0.00;;;;;;;;;;6167478;23;20008;-88
2023/12/27 11:09:32;;;;;;;0.00;0.00;;;;;;;;;;6192331;23;20032;-88
2023/12/27 11:11:58;;;;;;;0.00;0.00;;;;;;;;;;6218245;23;20412;-89
2023/12/27 11:14:24;;;;;;;0.00;0.00;;;;;;;;;;6218237;23;20008;-92
2023/12/27 11:16:50;;;;;;;0.00;0.00;;;;;;;;;;6193077;23;20008;-90
2023/12/27 11:19:15;;;;;;;0.00;0.00;;;;;;;;;;6192572;23;20007;-89
2023/12/27 11:21:41;;;;;;;0.00;0.00;;;;;;;;;;6193372;23;20011;-87
2023/12/27 11:24:07;;;;;;;0.00;0.00;;;;;;;;;;6193306;23;20050;-87
2023/12/27 11:26:36;;;;;;;0.00;0.00;;;;;;;;;;6168701;23;20458;-85
2023/12/27 11:29:10;;;;;;;0.00;0.00;;;;;;;;;;6218890;23;20000;-90
2023/12/27 11:31:40;;;;;;;0.00;0.00;;;;;;;;;;6244244;23;20079;-88
2023/12/27 11:34:06;;;;;;;0.00;0.00;;;;;;;;;;6193470;23;20016;-91
2023/12/27 11:36:32;;;;;;;0.00;0.00;;;;;;;;;;6217234;23;19996;-89
2023/12/27 11:39:01;;;;;;;0.00;0.00;;;;;;;;;;6218181;23;20339;-88
2023/12/27 11:41:27;;;;;;;0.00;0.00;;;;;;;;;;6217818;23;20008;-87
2023/12/27 11:43:54;;;;;;;0.00;0.00;;;;;;;;;;6244358;23;20347;-88
2023/12/27 11:46:30;;;;;;;0.00;0.00;;;;;;;;;;6193126;23;20478;-88
2023/12/27 11:48:58;;;;;;;0.00;0.00;;;;;;;;;;6193892;23;20066;-90
2023/12/27 11:51:34;;;;;;;0.00;0.00;;;;;;;;;;6218991;23;19997;-89
2023/12/27 11:54:00;;;;;;;0.00;0.00;;;;;;;;;;6173116;23;20008;-90
2023/12/27 11:56:33;;;;;;;0.00;0.00;;;;;;;;;;6226116;23;20004;-89
2023/12/27 11:58:59;;;;;;;0.00;0.00;;;;;;;;;;6206556;23;20005;-89
2023/12/27 12:01:35;;;;;;;0.00;0.00;;;;;;;;;;6201195;23;20030;-88
2023/12/27 12:04:22;;;;;;;0.00;0.00;;;;;;;;;;6220343;23;20427;-87
2023/12/27 12:06:54;;;;;;;0.00;0.00;;;;;;;;;;6246166;23;20351;-91
2023/12/27 12:09:31;;;;;;;0.00;0.00;;;;;;;;;;6244541;23;20047;-91
2023/12/27 12:11:57;;;;;;;0.00;0.00;;;;;;;;;;6246466;23;20704;-91
2023/12/27 12:14:23;;;;;;;0.00;0.00;;;;;;;;;;6194734;23;20012;-89
2023/12/27 12:16:49;;;;;;;0.00;0.00;;;;;;;;;;6170154;23;20449;-89
2023/12/27 12:19:16;;;;;;;0.00;0.00;;;;;;;;;;6219715;23;20011;-90
2023/12/27 12:21:41;;;;;;;0.00;0.00;;;;;;;;;;6219293;23;20000;-91
2023/12/27 12:24:10;;;;;;;0.00;0.00;;;;;;;;;;6194578;23;20035;-89
2023/12/27 12:26:36;;;;;;;0.00;0.00;;;;;;;;;;6219402;23;20446;-92
2023/12/27 12:29:07;;;;;;;0.00;0.00;;;;;;;;;;6189457;23;20001;-89
2023/12/27 12:31:34;;;;;;;0.00;0.00;;;;;;;;;;6214384;23;20009;-88
2023/12/27 12:33:59;;;;;;;0.00;0.00;;;;;;;;;;6241789;23;20008;-89
2023/12/27 12:36:25;;;;;;;0.00;0.00;;;;;;;;;;6219914;23;20070;-90
2023/12/27 12:38:51;;;;;;;0.00;0.00;;;;;;;;;;6194681;23;20000;-91
2023/12/27 12:41:17;;;;;;;0.00;0.00;;;;;;;;;;6194690;23;20007;-91
2023/12/27 12:43:43;;;;;;;0.00;0.00;;;;;;;;;;6219725;23;20090;-88
2023/12/27 12:46:09;;;;;;;0.00;0.00;;;;;;;;;;6219699;23;20016;-92
2023/12/27 12:48:36;;;;;;;0.00;0.00;;;;;;;;;;6194125;23;20015;-90
2023/12/27 12:51:15;;;;;;;0.00;0.00;;;;;;;;;;6220332;23;20016;-91
2023/12/27 12:53:41;;;;;;;0.00;0.00;;;;;;;;;;6245853;23;20000;-89
2023/12/27 12:56:07;;;;;;;0.00;0.00;;;;;;;;;;6194271;23;20027;-90
2023/12/27 12:58:35;;;;;;;0.00;0.00;;;;;;;;;;6244557;23;19997;-91
2023/12/27 13:01:01;;;;;;;0.00;0.00;;;;;;;;;;6194727;23;20004;-90
2023/12/27 13:03:53;;;;;;;0.00;0.00;;;;;;;;;;6221932;23;20101;-91
2023/12/27 13:06:19;;;;;;;0.00;0.00;;;;;;;;;;6242388;23;20019;-90
2023/12/27 13:08:49;;;;;;;0.00;0.00;;;;;;;;;;6235573;23;20011;-90
2023/12/27 13:11:17;;;;;;;0.00;0.00;;;;;;;;;;6256899;23;20073;-89
2023/12/27 13:13:45;;;;;;;0.00;0.00;;;;;;;;;;6173410;23;20014;-91
2023/12/27 13:16:11;;;;;;;0.00;0.00;;;;;;;;;;6196419;23;20003;-89
2023/12/27 13:18:38;;;;;;;0.00;0.00;;;;;;;;;;6219604;23;20084;-91
2023/12/27 13:21:33;;;;;;;0.00;0.00;;;;;;;;;;6220988;23;20000;-89
2023/12/27 13:24:22;;;;;;;0.00;0.00;;;;;;;;;;6196074;23;20012;-91
2023/12/27 13:26:47;;;;;;;0.00;0.00;;;;;;;;;;6202160;23;20044;-88
2023/12/27 13:29:17;;;;;;;0.00;0.00;;;;;;;;;;6221600;23;20089;-90
2023/12/27 13:31:42;;;;;;;0.00;0.00;;;;;;;;;;6197764;23;20000;-87
2023/12/27 13:34:08;;;;;;;0.00;0.00;;;;;;;;;;6223869;23;20023;-88
2023/12/27 13:36:42;;;;;;;0.00;0.00;;;;;;;;;;6196173;23;20012;-87
2023/12/27 13:39:08;;;;;;;0.00;0.00;;;;;;;;;;6220316;23;20383;-88
2023/12/27 13:41:33;;;;;;;0.00;0.00;;;;;;;;;;6246249;23;20071;-89
2023/12/27 13:43:59;;;;;;;0.00;0.00;;;;;;;;;;6244979;23;20008;-90
2023/12/27 13:46:26;;;;;;;0.00;0.00;;;;;;;;;;6192884;23;20008;-91
2023/12/27 13:48:52;;;;;;;0.00;0.00;;;;;;;;;;6222354;23;20343;-88
2023/12/27 13:51:17;;;;;;;0.00;0.00;;;;;;;;;;6218223;23;20083;-89
2023/12/27 13:54:09;;;;;;;0.00;0.00;;;;;;;;;;6198925;23;20019;-89
2023/12/27 13:56:35;;;;;;;0.00;0.00;;;;;;;;;;6246984;23;20011;-90
2023/12/27 14:05:05;;;;;;;0.00;0.00;;;;;;;;;;6245949;22;20015;-78
2023/12/27 14:07:30;;;;;;;0.00;0.00;;;;;;;;;;6217875;23;20087;-78
2023/12/27 14:09:56;;;;;;;0.00;0.00;;;;;;;;;;6218395;23;20004;-77
2023/12/27 14:12:25;;;;;;;0.00;0.00;;;;;;;;;;6244650;23;20012;-77
2023/12/27 14:14:50;;;;;;;0.00;0.00;;;;;;;;;;6243796;23;20089;-79
2023/12/27 14:17:16;;;;;;;0.00;0.00;;;;;;;;;;6246291;23;20388;-79
2023/12/27 14:19:41;;;;;;;0.00;0.00;;;;;;;;;;6248541;23;20000;-77
2023/12/27 14:22:07;;;;;;;0.00;0.00;;;;;;;;;;6244736;23;20360;-77
2023/12/27 14:24:34;;;;;;;0.00;0.00;;;;;;;;;;6244596;23;20015;-79
2023/12/27 14:26:59;;;;;;;0.00;0.00;;;;;;;;;;6244254;23;20082;-79
2023/12/27 14:29:25;;;;;;;0.00;0.00;;;;;;;;;;6244355;23;20011;-78
2023/12/27 14:31:50;;;;;;;0.00;0.00;;;;;;;;;;6244404;23;19996;-78
2023/12/27 14:34:16;;;;;;;0.00;0.00;;;;;;;;;;6244029;23;20424;-78
2023/12/27 14:36:41;;;;;;;0.00;0.00;;;;;;;;;;6243918;23;20003;-78
2023/12/27 14:39:09;;;;;;;0.00;0.00;;;;;;;;;;6248660;23;20004;-78
2023/12/27 14:41:39;;;;;;;0.00;0.00;;;;;;;;;;6219077;23;20386;-79
2023/12/27 14:44:06;;;;;;;0.00;0.00;;;;;;;;;;6244074;23;20027;-78
2023/12/27 14:46:31;;;;;;;0.00;0.00;;;;;;;;;;6244110;23;20008;-79